createdAt,value
2017-10-21T00:02:17.525Z,70.53
2017-10-21T00:04:47.426Z,70.47
2017-10-21T00:07:17.270Z,70.74
2017-10-21T00:09:46.101Z,70.64
2017-10-21T00:12:15.578Z,70.98
2017-10-21T00:14:44.834Z,71.03
2017-10-21T00:17:18.277Z,70.46
2017-10-21T00:19:49.520Z,70.33
2017-10-21T00:22:18.344Z,70.71
2017-10-21T00:24:47.111Z,70.97
2017-10-21T00:27:15.926Z,70.92
2017-10-21T00:29:46.765Z,71.39
2017-10-21T00:32:15.610Z,70.05
2017-10-21T00:34:44.440Z,70.22
2017-10-21T00:37:14.078Z,70.00
2017-10-21T00:39:43.134Z,70.69
2017-10-21T00:42:12.213Z,70.28
2017-10-21T00:44:41.102Z,69.71
2017-10-21T00:47:11.115Z,70.47
2017-10-21T00:49:40.211Z,72.71
2017-10-21T00:52:09.002Z,72.64
2017-10-21T00:54:42.500Z,71.81
2017-10-21T00:57:11.688Z,71.92
2017-10-21T00:59:40.794Z,71.00
2017-10-21T01:02:09.646Z,72.66
2017-10-21T01:04:38.694Z,71.40
2017-10-21T01:07:13.654Z,69.92
2017-10-21T01:09:43.533Z,71.96
2017-10-21T01:12:14.952Z,71.83
2017-10-21T01:14:44.615Z,72.25
2017-10-21T01:17:13.984Z,72.00
2017-10-21T01:19:46.681Z,70.74
2017-10-21T01:22:16.332Z,72.15
2017-10-21T01:24:45.871Z,71.94
2017-10-21T01:27:16.543Z,71.58
2017-10-21T01:29:46.019Z,71.69
2017-10-21T01:32:16.450Z,71.74
2017-10-21T01:34:47.172Z,71.83
2017-10-21T01:37:17.707Z,71.61
2017-10-21T01:39:48.083Z,72.09
2017-10-21T01:42:18.130Z,73.05
2017-10-21T01:44:50.370Z,72.29
2017-10-21T01:47:19.891Z,72.66
2017-10-21T01:49:49.716Z,73.19
2017-10-21T01:52:20.049Z,71.80
2017-10-21T01:54:50.372Z,72.60
2017-10-21T01:57:20.741Z,72.08
2017-10-21T01:59:50.807Z,73.12
2017-10-21T02:02:21.056Z,72.04
2017-10-21T02:04:51.438Z,71.70
2017-10-21T02:07:21.651Z,71.82
2017-10-21T02:09:51.849Z,72.44
2017-10-21T02:12:21.331Z,71.80
2017-10-21T02:14:51.206Z,71.83
2017-10-21T02:17:21.452Z,71.05
2017-10-21T02:19:51.328Z,71.17
2017-10-21T02:22:21.732Z,72.51
2017-10-21T02:24:51.185Z,72.74
2017-10-21T02:27:20.674Z,72.38
2017-10-21T02:29:51.476Z,72.35
2017-10-21T02:32:21.216Z,71.76
2017-10-21T02:34:51.528Z,72.21
2017-10-21T02:37:21.125Z,72.23
2017-10-21T02:39:50.684Z,71.00
2017-10-21T02:42:20.268Z,70.58
2017-10-21T02:44:50.867Z,70.72
2017-10-21T02:47:20.232Z,70.81
2017-10-21T02:49:50.321Z,70.85
2017-10-21T02:52:19.799Z,69.77
2017-10-21T02:54:49.953Z,71.77
2017-10-21T02:57:20.311Z,70.83
2017-10-21T02:59:50.724Z,70.92
2017-10-21T03:02:20.236Z,70.49
2017-10-21T03:04:49.599Z,70.93
2017-10-21T03:07:19.891Z,71.07
2017-10-21T03:09:49.628Z,70.93
2017-10-21T03:12:20.551Z,71.01
2017-10-21T03:14:50.760Z,71.35
2017-10-21T03:17:21.120Z,70.68
2017-10-21T03:19:50.902Z,71.76
2017-10-21T03:22:20.983Z,71.53
2017-10-21T03:24:50.732Z,71.36
2017-10-21T03:27:21.199Z,71.08
2017-10-21T03:29:50.592Z,71.23
2017-10-21T03:32:19.908Z,70.46
2017-10-21T03:34:49.567Z,69.90
2017-10-21T03:37:19.975Z,70.62
2017-10-21T03:39:49.861Z,70.14
2017-10-21T03:42:19.244Z,70.03
2017-10-21T03:44:49.004Z,69.89
2017-10-21T03:47:19.131Z,70.14
2017-10-21T03:49:49.265Z,69.93
2017-10-21T03:52:18.609Z,67.68
2017-10-21T03:54:47.964Z,66.62
2017-10-21T03:57:17.773Z,65.81
2017-10-21T03:59:47.134Z,66.74
2017-10-21T04:02:17.474Z,66.65
2017-10-21T04:04:47.399Z,68.11
2017-10-21T04:07:17.512Z,67.33
2017-10-21T04:09:47.983Z,68.14
2017-10-21T04:12:17.423Z,68.71
2017-10-21T04:14:47.023Z,69.52
2017-10-21T04:17:16.703Z,69.68
2017-10-21T04:19:46.660Z,69.87
2017-10-21T04:22:16.820Z,70.50
2017-10-21T04:24:46.291Z,69.91
2017-10-21T04:27:16.343Z,69.74
2017-10-21T04:29:46.635Z,69.76
2017-10-21T04:32:17.727Z,70.44
2017-10-21T04:34:51.012Z,69.25
2017-10-21T04:37:20.318Z,67.99
2017-10-21T04:39:49.719Z,67.37
2017-10-21T04:42:19.054Z,67.46
2017-10-21T04:44:49.320Z,67.33
2017-10-21T04:47:19.794Z,66.98
2017-10-21T04:49:49.639Z,66.40
2017-10-21T04:52:20.565Z,66.34
2017-10-21T04:54:50.219Z,67.06
2017-10-21T04:57:21.161Z,68.00
2017-10-21T04:59:51.431Z,68.47
2017-10-21T05:02:21.587Z,68.24
2017-10-21T05:04:53.017Z,68.66
2017-10-21T05:07:23.090Z,69.40
2017-10-21T05:09:53.680Z,69.56
2017-10-21T05:12:23.056Z,68.35
2017-10-21T05:14:56.375Z,68.97
2017-10-21T05:17:26.238Z,69.33
2017-10-21T05:20:00.348Z,68.81
2017-10-21T05:22:29.963Z,69.89
2017-10-21T05:25:00.355Z,69.13
2017-10-21T05:27:30.439Z,69.16
2017-10-21T05:29:59.759Z,68.84
2017-10-21T05:32:29.359Z,68.03
2017-10-21T05:35:04.064Z,68.83
2017-10-21T05:37:33.440Z,69.99
2017-10-21T05:40:03.829Z,69.68
2017-10-21T05:42:33.711Z,71.53
2017-10-21T05:45:05.728Z,71.18
2017-10-21T05:47:36.147Z,70.05
2017-10-21T05:50:14.079Z,69.99
2017-10-21T05:52:43.534Z,69.24
2017-10-21T05:55:15.076Z,70.73
2017-10-21T05:57:44.637Z,70.38
2017-10-21T06:00:14.115Z,70.00
2017-10-21T06:02:44.936Z,69.31
2017-10-21T06:05:15.240Z,70.08
2017-10-21T06:07:44.723Z,69.41
2017-10-21T06:10:14.456Z,69.73
2017-10-21T06:12:43.914Z,69.69
2017-10-21T06:15:13.356Z,69.51
2017-10-21T06:17:43.213Z,69.29
2017-10-21T06:20:15.216Z,68.87
2017-10-21T06:22:48.214Z,67.90
2017-10-21T06:25:18.442Z,68.02
2017-10-21T06:27:47.780Z,68.04
2017-10-21T06:30:18.132Z,67.83
2017-10-21T06:32:49.620Z,67.80
2017-10-21T06:35:19.805Z,68.60
2017-10-21T06:37:49.513Z,68.87
2017-10-21T06:40:19.252Z,68.76
2017-10-21T06:42:49.679Z,67.69
2017-10-21T06:45:19.035Z,66.99
2017-10-21T06:47:48.985Z,66.95
2017-10-21T06:50:18.664Z,66.94
2017-10-21T06:52:48.630Z,67.17
2017-10-21T06:55:18.443Z,67.38
2017-10-21T06:57:48.232Z,68.17
2017-10-21T07:00:20.869Z,67.76
2017-10-21T07:02:51.378Z,67.79
2017-10-21T07:05:21.468Z,66.99
2017-10-21T07:10:41.980Z,68.26
2017-10-21T07:13:12.186Z,68.75
2017-10-21T07:15:42.143Z,68.37
2017-10-21T07:18:12.809Z,67.93
2017-10-21T07:20:42.153Z,68.06
2017-10-21T07:23:12.345Z,68.04
2017-10-21T07:25:41.899Z,68.41
2017-10-21T07:28:11.964Z,67.73
2017-10-21T07:30:42.063Z,67.44
2017-10-21T07:33:16.792Z,68.07
2017-10-21T07:35:48.964Z,67.25
2017-10-21T07:38:18.671Z,67.71
2017-10-21T07:40:48.301Z,67.50
2017-10-21T07:43:20.835Z,67.10
2017-10-21T07:45:50.144Z,67.30
2017-10-21T07:48:20.803Z,66.97
2017-10-21T07:50:50.230Z,67.20
2017-10-21T07:53:20.180Z,66.60
2017-10-21T07:55:49.984Z,66.30
2017-10-21T07:58:19.874Z,66.74
2017-10-21T08:00:50.447Z,67.28
2017-10-21T08:03:22.618Z,66.43
2017-10-21T08:05:51.983Z,66.19
2017-10-21T08:08:23.297Z,68.14
2017-10-21T08:10:53.856Z,67.73
2017-10-21T08:13:24.269Z,67.04
2017-10-21T08:15:54.354Z,67.88
2017-10-21T08:18:25.268Z,67.79
2017-10-21T08:20:55.349Z,68.66
2017-10-21T08:23:27.148Z,69.06
2017-10-21T08:25:56.679Z,69.11
2017-10-21T08:28:27.035Z,69.02
2017-10-21T08:30:57.146Z,68.34
2017-10-21T08:33:27.905Z,68.63
2017-10-21T08:35:58.632Z,68.07
2017-10-21T08:38:28.376Z,68.20
2017-10-21T08:40:58.702Z,69.19
2017-10-21T08:43:28.248Z,67.83
2017-10-21T08:46:01.965Z,67.54
2017-10-21T08:48:32.750Z,66.07
2017-10-21T08:51:04.036Z,65.14
2017-10-21T08:53:34.568Z,65.99
2017-10-21T08:58:39.829Z,66.69
2017-10-21T09:01:09.372Z,67.68
2017-10-21T09:03:39.521Z,66.65
2017-10-21T09:06:10.811Z,67.13
2017-10-21T09:08:41.936Z,65.87
2017-10-21T09:11:16.901Z,64.66
2017-10-21T09:13:46.308Z,64.30
2017-10-21T09:16:16.603Z,63.67
2017-10-21T09:18:46.443Z,63.48
2017-10-21T09:21:15.891Z,65.23
2017-10-21T09:23:46.012Z,65.19
2017-10-21T09:26:17.526Z,65.16
2017-10-21T09:28:47.239Z,63.93
2017-10-21T09:31:18.274Z,63.47
2017-10-21T09:33:47.880Z,63.77
2017-10-21T09:36:17.382Z,63.47
2017-10-21T09:38:47.534Z,61.92
2017-10-21T09:41:18.172Z,62.56
2017-10-21T09:43:49.013Z,61.06
2017-10-21T09:46:19.025Z,60.63
2017-10-21T09:48:49.211Z,61.82
2017-10-21T09:51:18.681Z,59.34
2017-10-21T09:53:49.469Z,59.36
2017-10-21T09:56:19.573Z,57.87
2017-10-21T09:58:51.136Z,58.26
2017-10-21T10:01:20.523Z,56.72
2017-10-21T10:03:50.527Z,56.23
2017-10-21T10:06:21.269Z,56.30
2017-10-21T10:08:51.544Z,56.61
2017-10-21T10:11:22.948Z,56.14
2017-10-21T10:13:52.750Z,55.60
2017-10-21T10:16:25.164Z,58.89
2017-10-21T10:19:00.092Z,57.29
2017-10-21T10:21:31.692Z,57.51
2017-10-21T10:24:02.489Z,56.60
2017-10-21T10:26:32.739Z,57.19
2017-10-21T10:29:03.061Z,57.88
2017-10-21T10:31:34.599Z,60.30
2017-10-21T10:34:06.776Z,63.07
2017-10-21T10:36:38.285Z,64.36
2017-10-21T10:39:12.396Z,67.58
2017-10-21T10:41:42.676Z,68.63
2017-10-21T10:44:12.082Z,70.84
2017-10-21T10:46:41.583Z,71.72
2017-10-21T10:49:10.951Z,71.26
2017-10-21T10:51:42.817Z,70.80
2017-10-21T10:54:12.212Z,70.52
2017-10-21T10:56:41.608Z,71.01
2017-10-21T10:59:12.347Z,71.35
2017-10-21T11:01:42.501Z,71.25
2017-10-21T11:04:12.850Z,71.36
2017-10-21T11:06:42.648Z,70.11
2017-10-21T11:09:14.856Z,71.91
2017-10-21T11:11:46.370Z,72.37
2017-10-21T11:14:16.612Z,72.44
2017-10-21T11:16:46.792Z,74.05
2017-10-21T11:19:16.182Z,73.10
2017-10-21T11:21:46.009Z,73.30
2017-10-21T11:24:15.392Z,73.23
2017-10-21T11:26:47.927Z,73.05
2017-10-21T11:29:19.602Z,73.48
2017-10-21T11:31:56.603Z,73.99
2017-10-21T11:34:25.943Z,74.63
2017-10-21T11:36:56.110Z,73.43
2017-10-21T11:39:26.177Z,72.00
2017-10-21T11:41:56.308Z,71.56
2017-10-21T11:44:26.416Z,70.34
2017-10-21T11:46:56.634Z,69.07
2017-10-21T11:49:26.459Z,69.64
2017-10-21T11:51:58.131Z,71.15
2017-10-21T11:54:28.296Z,72.25
2017-10-21T11:56:57.760Z,71.83
2017-10-21T11:59:28.147Z,71.51
2017-10-21T12:01:58.451Z,71.93
2017-10-21T12:04:27.783Z,71.87
2017-10-21T12:06:58.245Z,70.45
2017-10-21T12:09:28.495Z,70.98
2017-10-21T12:11:59.244Z,70.58
2017-10-21T12:14:29.147Z,71.84
2017-10-21T12:17:00.008Z,70.99
2017-10-21T12:19:30.617Z,71.61
2017-10-21T12:22:03.463Z,72.54
2017-10-21T12:24:34.343Z,72.15
2017-10-21T12:27:09.925Z,73.37
2017-10-21T12:29:42.480Z,71.76
2017-10-21T12:32:18.099Z,73.40
2017-10-21T12:34:52.265Z,74.61
2017-10-21T12:37:22.717Z,76.22
2017-10-21T12:39:53.427Z,76.00
2017-10-21T12:42:27.571Z,75.04
2017-10-21T12:44:57.091Z,75.41
2017-10-21T12:47:29.420Z,75.73
2017-10-21T12:50:01.171Z,75.61
2017-10-21T12:52:33.793Z,75.97
2017-10-21T12:55:08.092Z,76.40
2017-10-21T12:58:07.943Z,76.57
2017-10-21T13:01:15.324Z,75.09
2017-10-21T13:03:59.869Z,74.61
2017-10-21T13:06:42.345Z,73.28
2017-10-21T13:09:12.229Z,73.89
2017-10-21T13:11:43.514Z,75.17
2017-10-21T13:14:13.913Z,78.00
2017-10-21T13:16:47.681Z,78.11
2017-10-21T13:19:23.180Z,77.70
2017-10-21T13:22:01.309Z,77.28
2017-10-21T13:24:31.051Z,77.66
2017-10-21T13:27:08.783Z,76.99
2017-10-21T13:29:41.665Z,77.34
2017-10-21T13:32:11.079Z,76.47
2017-10-21T13:34:44.541Z,76.93
2017-10-21T13:37:13.936Z,76.65
2017-10-21T13:39:45.047Z,75.56
2017-10-21T13:42:20.013Z,75.04
2017-10-21T13:44:49.428Z,73.88
2017-10-21T13:47:26.766Z,74.21
2017-10-21T13:50:01.045Z,73.43
2017-10-21T13:52:36.814Z,74.38
2017-10-21T13:55:14.965Z,73.83
2017-10-21T13:57:44.919Z,73.58
2017-10-21T14:00:21.715Z,73.10
2017-10-21T14:02:52.135Z,72.93
2017-10-21T14:05:27.320Z,73.00
2017-10-21T14:08:07.719Z,73.95
2017-10-21T14:11:02.744Z,72.55
2017-10-21T14:19:59.658Z,70.69
2017-10-21T14:25:57.907Z,71.09
2017-10-21T14:28:30.812Z,73.38
2017-10-21T14:31:00.835Z,75.20
2017-10-21T14:33:31.760Z,74.63
2017-10-21T14:36:03.027Z,74.26
2017-10-21T14:38:33.246Z,73.35
2017-10-21T14:41:04.638Z,75.06
2017-10-21T14:43:34.664Z,74.10
2017-10-21T14:46:15.780Z,72.77
2017-10-21T14:48:56.633Z,72.58
2017-10-21T14:54:09.585Z,73.15
2017-10-21T14:56:48.701Z,73.76
2017-10-21T14:59:19.057Z,74.93
2017-10-21T15:01:48.521Z,74.72
2017-10-21T15:04:20.004Z,74.24
2017-10-21T15:06:52.112Z,74.01
2017-10-21T15:09:23.809Z,73.76
2017-10-21T15:11:55.349Z,73.94
2017-10-21T15:14:25.995Z,72.81
2017-10-21T15:16:57.068Z,74.69
2017-10-21T15:19:27.069Z,74.58
2017-10-21T15:22:03.083Z,74.69
2017-10-21T15:24:33.034Z,75.62
2017-10-21T15:27:03.406Z,74.12
2017-10-21T15:29:33.536Z,74.94
2017-10-21T15:32:02.984Z,74.12
2017-10-21T15:34:34.303Z,73.62
2017-10-21T15:37:04.843Z,75.35
2017-10-21T15:39:39.969Z,76.17
2017-10-21T15:42:15.520Z,74.72
2017-10-21T15:44:45.076Z,76.64
2017-10-21T15:47:14.460Z,76.23
2017-10-21T15:49:44.129Z,78.32
2017-10-21T15:52:13.561Z,77.32
2017-10-21T15:54:45.423Z,78.08
2017-10-21T15:57:15.311Z,77.20
2017-10-21T15:59:44.791Z,78.75
2017-10-21T16:02:14.623Z,79.03
2017-10-21T16:04:45.322Z,78.38
2017-10-21T16:14:28.268Z,78.43
2017-10-21T16:16:58.558Z,80.60
2017-10-21T16:19:29.159Z,80.80
2017-10-21T16:22:00.608Z,80.23
2017-10-21T16:24:31.002Z,79.50
2017-10-21T16:27:00.660Z,77.76
2017-10-21T16:29:30.918Z,76.73
2017-10-21T16:32:00.283Z,76.54
2017-10-21T16:34:30.431Z,76.07
2017-10-21T16:37:00.650Z,75.25
2017-10-21T16:43:10.348Z,78.32
2017-10-21T16:45:42.364Z,78.28
2017-10-21T16:48:15.875Z,76.91
2017-10-21T16:52:26.424Z,76.41
2017-10-21T16:55:30.526Z,74.79
2017-10-21T16:58:27.998Z,75.64
2017-10-21T17:01:32.960Z,77.46
2017-10-21T17:17:13.257Z,71.86
2017-10-21T17:19:42.982Z,73.30
2017-10-21T17:22:12.277Z,72.06
2017-10-21T17:24:41.475Z,72.50
2017-10-21T17:27:10.312Z,71.73
2017-10-21T17:29:39.061Z,71.58
2017-10-21T17:32:07.610Z,70.88
2017-10-21T17:34:37.285Z,72.66
2017-10-21T17:37:05.881Z,73.09
2017-10-21T17:39:34.586Z,73.37
2017-10-21T17:42:06.765Z,73.93
2017-10-21T17:44:35.279Z,74.28
2017-10-21T17:47:03.965Z,74.96
2017-10-21T17:49:32.885Z,74.16
2017-10-21T17:52:03.959Z,73.60
2017-10-21T17:54:33.225Z,74.41
2017-10-21T17:57:02.106Z,75.43
2017-10-21T17:59:31.806Z,76.47
2017-10-21T18:02:00.463Z,75.69
2017-10-21T18:04:30.120Z,75.69
2017-10-21T18:06:58.636Z,75.23
2017-10-21T18:09:27.901Z,75.48
2017-10-21T18:11:56.797Z,74.19
2017-10-21T18:14:25.296Z,73.20
2017-10-21T18:16:54.641Z,73.18
2017-10-21T18:19:23.397Z,74.42
2017-10-21T18:21:52.601Z,75.37
2017-10-21T18:24:21.530Z,75.53
2017-10-21T18:26:50.393Z,77.43
2017-10-21T18:29:20.682Z,77.89
2017-10-21T18:31:49.881Z,77.44
2017-10-21T18:34:19.403Z,78.69
2017-10-21T18:36:48.627Z,76.77
2017-10-21T18:39:17.154Z,76.09
2017-10-21T18:41:46.662Z,76.82
2017-10-21T18:44:15.857Z,77.43
2017-10-21T18:46:47.126Z,76.40
2017-10-21T18:49:16.644Z,76.47
2017-10-21T18:51:45.606Z,76.69
2017-10-21T18:54:14.863Z,77.07
2017-10-21T18:56:43.329Z,77.18
2017-10-21T19:08:22.638Z,80.82
2017-10-21T19:10:53.190Z,79.59
2017-10-21T19:13:22.812Z,78.16
2017-10-21T19:19:29.042Z,77.59
2017-10-21T19:22:01.382Z,77.70
2017-10-21T19:24:32.787Z,76.73
2017-10-21T19:27:05.731Z,77.87
2017-10-21T19:29:36.885Z,77.27
2017-10-21T19:32:08.965Z,78.67
2017-10-21T19:34:41.238Z,78.05
2017-10-21T19:37:14.398Z,78.68
2017-10-21T19:39:45.960Z,77.61
2017-10-21T19:42:20.506Z,77.18
2017-10-21T19:44:56.256Z,77.29
2017-10-21T19:47:27.984Z,77.52
2017-10-21T19:53:33.258Z,77.74
2017-10-21T19:59:41.485Z,79.37
2017-10-21T20:02:15.418Z,78.93
2017-10-21T20:04:47.760Z,76.55
2017-10-21T20:07:20.411Z,77.29
2017-10-21T20:13:24.338Z,76.61
2017-10-21T20:15:53.602Z,77.48
2017-10-21T20:18:23.849Z,77.53
2017-10-21T20:20:53.110Z,77.13
2017-10-21T20:23:24.408Z,77.24
2017-10-21T20:25:54.789Z,76.58
2017-10-21T20:28:24.082Z,75.93
2017-10-21T20:30:53.368Z,75.94
2017-10-21T20:33:23.970Z,75.37
2017-10-21T20:35:53.637Z,75.46
2017-10-21T20:38:23.404Z,75.73
2017-10-21T20:40:53.816Z,77.58
2017-10-21T20:43:24.333Z,77.12
2017-10-21T20:45:53.853Z,76.51
2017-10-21T20:48:23.513Z,76.67
2017-10-21T20:50:53.540Z,76.98
2017-10-21T20:53:22.860Z,78.95
2017-10-21T20:55:52.184Z,78.90
2017-10-21T20:58:21.405Z,78.27
2017-10-21T21:00:50.972Z,78.87
2017-10-21T21:03:21.584Z,77.35
2017-10-21T21:05:50.840Z,77.21
2017-10-21T21:08:20.306Z,76.86
2017-10-21T21:10:50.264Z,75.49
2017-10-21T21:13:19.496Z,75.73
2017-10-21T21:15:49.113Z,75.53
2017-10-21T21:18:18.317Z,74.65
2017-10-21T21:20:48.781Z,74.00
2017-10-21T21:23:18.057Z,73.68
2017-10-21T21:25:47.331Z,72.60
2017-10-21T21:28:16.659Z,73.63
2017-10-21T21:30:49.433Z,75.88
2017-10-21T21:33:20.138Z,76.38
2017-10-21T21:35:49.442Z,77.47
2017-10-21T21:38:18.984Z,77.50
2017-10-21T21:40:49.101Z,77.40
2017-10-21T21:43:19.748Z,76.86
2017-10-21T21:45:50.317Z,77.54
2017-10-21T21:48:19.600Z,77.24
2017-10-21T21:50:49.276Z,76.58
2017-10-21T21:53:19.610Z,76.34
2017-10-21T21:55:49.961Z,76.20
2017-10-21T21:58:19.225Z,75.50
2017-10-21T22:00:48.725Z,75.28
2017-10-21T22:03:17.953Z,73.93
2017-10-21T22:05:47.163Z,73.41
2017-10-21T22:08:16.692Z,73.72
2017-10-21T22:10:46.603Z,75.88
2017-10-21T22:13:16.951Z,76.70
2017-10-21T22:15:47.676Z,75.79
2017-10-21T22:18:17.854Z,75.16
2017-10-21T22:20:47.386Z,74.55
2017-10-21T22:23:16.953Z,76.46
2017-10-21T22:25:46.621Z,76.44
2017-10-21T22:28:16.581Z,76.60
2017-10-21T22:30:45.884Z,77.12
2017-10-21T22:33:15.133Z,76.77
2017-10-21T22:35:45.152Z,77.33
2017-10-21T22:38:15.719Z,76.65
2017-10-21T22:40:45.323Z,76.40
2017-10-21T22:43:14.532Z,76.12
2017-10-21T22:45:44.085Z,75.21
2017-10-21T22:48:14.058Z,74.81
2017-10-21T22:50:43.328Z,74.10
2017-10-21T22:53:12.914Z,74.95
2017-10-21T22:55:42.118Z,75.90
2017-10-21T22:58:12.045Z,76.13
2017-10-21T23:00:41.541Z,77.08
2017-10-21T23:03:15.506Z,77.95
2017-10-21T23:05:46.674Z,76.17
2017-10-21T23:08:16.475Z,75.47
2017-10-21T23:10:49.622Z,75.62
2017-10-21T23:13:18.890Z,73.63
2017-10-21T23:15:49.746Z,72.49
2017-10-21T23:18:19.744Z,72.96
2017-10-21T23:20:48.967Z,73.14
2017-10-21T23:23:18.513Z,72.72
2017-10-21T23:25:48.465Z,74.38
2017-10-21T23:28:17.683Z,73.35
2017-10-21T23:30:47.156Z,73.65
2017-10-21T23:33:17.389Z,74.79
2017-10-21T23:35:46.645Z,75.92
2017-10-21T23:38:16.650Z,75.60
2017-10-21T23:40:45.911Z,75.00
2017-10-21T23:43:15.128Z,75.07
2017-10-21T23:45:44.564Z,76.37
2017-10-21T23:48:14.532Z,76.17
2017-10-21T23:50:43.901Z,76.41
2017-10-21T23:53:17.852Z,77.12
2017-10-21T23:55:47.517Z,77.02
2017-10-21T23:58:17.621Z,77.86
